sensor_id;sensor_type;location;lat;lon;timestamp;P1;durP1;ratioP1;P2;durP2;ratioP2
1837;SDS011;918;50.796;6.772;2023-03-23T00:01:03;2.80;;;2.60;;
1837;SDS011;918;50.796;6.772;2023-03-23T00:03:29;2.10;;;2.00;;
1837;SDS011;918;50.796;6.772;2023-03-23T00:05:57;2.03;;;1.93;;
1837;SDS011;918;50.796;6.772;2023-03-23T00:08:29;3.20;;;2.00;;
1837;SDS011;918;50.796;6.772;2023-03-23T00:10:54;2.00;;;1.80;;
1837;SDS011;918;50.796;6.772;2023-03-23T00:13:23;1.90;;;1.80;;
1837;SDS011;918;50.796;6.772;2023-03-23T00:15:49;2.00;;;1.80;;
1837;SDS011;918;50.796;6.772;2023-03-23T00:18:16;4.60;;;2.50;;
1837;SDS011;918;50.796;6.772;2023-03-23T00:20:48;2.33;;;2.13;;
1837;SDS011;918;50.796;6.772;2023-03-23T00:23:15;2.30;;;2.20;;
1837;SDS011;918;50.796;6.772;2023-03-23T00:25:47;2.50;;;1.90;;
1837;SDS011;918;50.796;6.772;2023-03-23T00:28:14;2.03;;;1.93;;
1837;SDS011;918;50.796;6.772;2023-03-23T00:30:40;2.10;;;1.90;;
1837;SDS011;918;50.796;6.772;2023-03-23T00:33:07;1.83;;;1.73;;
1837;SDS011;918;50.796;6.772;2023-03-23T00:35:32;2.00;;;1.90;;
1837;SDS011;918;50.796;6.772;2023-03-23T00:37:58;1.70;;;1.60;;
1837;SDS011;918;50.796;6.772;2023-03-23T00:40:23;1.93;;;1.77;;
1837;SDS011;918;50.796;6.772;2023-03-23T00:42:49;2.30;;;2.10;;
1837;SDS011;918;50.796;6.772;2023-03-23T00:45:14;2.10;;;2.00;;
1837;SDS011;918;50.796;6.772;2023-03-23T00:47:40;2.87;;;2.67;;
1837;SDS011;918;50.796;6.772;2023-03-23T00:50:11;3.40;;;2.27;;
1837;SDS011;918;50.796;6.772;2023-03-23T00:52:37;2.40;;;2.20;;
1837;SDS011;918;50.796;6.772;2023-03-23T00:55:03;2.33;;;2.13;;
1837;SDS011;918;50.796;6.772;2023-03-23T00:57:28;2.30;;;2.10;;
1837;SDS011;918;50.796;6.772;2023-03-23T00:59:54;2.20;;;2.00;;
1837;SDS011;918;50.796;6.772;2023-03-23T01:02:19;1.90;;;1.70;;
1837;SDS011;918;50.796;6.772;2023-03-23T01:04:44;2.10;;;2.00;;
1837;SDS011;918;50.796;6.772;2023-03-23T01:07:10;2.03;;;1.90;;
1837;SDS011;918;50.796;6.772;2023-03-23T01:09:37;2.40;;;2.17;;
1837;SDS011;918;50.796;6.772;2023-03-23T01:12:10;2.33;;;2.13;;
1837;SDS011;918;50.796;6.772;2023-03-23T01:14:36;5.10;;;2.37;;
1837;SDS011;918;50.796;6.772;2023-03-23T01:17:01;2.27;;;2.17;;
1837;SDS011;918;50.796;6.772;2023-03-23T01:19:26;1.80;;;1.70;;
1837;SDS011;918;50.796;6.772;2023-03-23T01:21:52;1.93;;;1.83;;
1837;SDS011;918;50.796;6.772;2023-03-23T01:24:17;2.10;;;1.90;;
1837;SDS011;918;50.796;6.772;2023-03-23T01:26:42;4.77;;;2.30;;
1837;SDS011;918;50.796;6.772;2023-03-23T01:29:08;2.30;;;2.20;;
1837;SDS011;918;50.796;6.772;2023-03-23T01:31:33;2.40;;;2.10;;
1837;SDS011;918;50.796;6.772;2023-03-23T01:33:59;2.23;;;2.03;;
1837;SDS011;918;50.796;6.772;2023-03-23T01:36:26;2.03;;;1.93;;
1837;SDS011;918;50.796;6.772;2023-03-23T01:38:53;2.13;;;2.00;;
1837;SDS011;918;50.796;6.772;2023-03-23T01:41:20;3.10;;;2.47;;
1837;SDS011;918;50.796;6.772;2023-03-23T01:46:26;2.77;;;2.30;;
1837;SDS011;918;50.796;6.772;2023-03-23T01:48:53;2.33;;;2.23;;
1837;SDS011;918;50.796;6.772;2023-03-23T01:51:19;2.73;;;2.53;;
1837;SDS011;918;50.796;6.772;2023-03-23T01:53:46;4.10;;;2.77;;
1837;SDS011;918;50.796;6.772;2023-03-23T01:56:19;2.80;;;2.60;;
1837;SDS011;918;50.796;6.772;2023-03-23T01:58:49;2.90;;;2.70;;
1837;SDS011;918;50.796;6.772;2023-03-23T02:01:15;3.20;;;2.90;;
1837;SDS011;918;50.796;6.772;2023-03-23T02:03:41;2.87;;;2.67;;
1837;SDS011;918;50.796;6.772;2023-03-23T02:06:08;2.70;;;2.50;;
1837;SDS011;918;50.796;6.772;2023-03-23T02:08:33;2.40;;;2.23;;
1837;SDS011;918;50.796;6.772;2023-03-23T02:10:59;3.27;;;2.73;;
1837;SDS011;918;50.796;6.772;2023-03-23T02:13:25;2.53;;;2.33;;
1837;SDS011;918;50.796;6.772;2023-03-23T02:16:10;2.13;;;1.93;;
1837;SDS011;918;50.796;6.772;2023-03-23T02:22:01;4.50;;;2.63;;
1837;SDS011;918;50.796;6.772;2023-03-23T02:27:06;2.40;;;2.20;;
1837;SDS011;918;50.796;6.772;2023-03-23T02:29:38;2.50;;;2.30;;
1837;SDS011;918;50.796;6.772;2023-03-23T02:35:07;3.53;;;2.43;;
1837;SDS011;918;50.796;6.772;2023-03-23T02:37:39;2.37;;;2.27;;
1837;SDS011;918;50.796;6.772;2023-03-23T02:40:17;2.13;;;1.93;;
1837;SDS011;918;50.796;6.772;2023-03-23T02:42:46;2.23;;;2.10;;
1837;SDS011;918;50.796;6.772;2023-03-23T02:45:14;2.10;;;1.90;;
1837;SDS011;918;50.796;6.772;2023-03-23T02:47:40;2.50;;;2.03;;
1837;SDS011;918;50.796;6.772;2023-03-23T02:50:07;1.60;;;1.50;;
1837;SDS011;918;50.796;6.772;2023-03-23T02:52:35;2.40;;;2.23;;
1837;SDS011;918;50.796;6.772;2023-03-23T02:55:01;2.30;;;1.87;;
1837;SDS011;918;50.796;6.772;2023-03-23T02:57:27;2.03;;;1.93;;
1837;SDS011;918;50.796;6.772;2023-03-23T02:59:53;2.50;;;2.30;;
1837;SDS011;918;50.796;6.772;2023-03-23T03:02:27;1.70;;;1.60;;
1837;SDS011;918;50.796;6.772;2023-03-23T03:04:57;3.20;;;1.90;;
1837;SDS011;918;50.796;6.772;2023-03-23T03:10:08;1.70;;;1.60;;
1837;SDS011;918;50.796;6.772;2023-03-23T03:12:53;1.77;;;1.67;;
1837;SDS011;918;50.796;6.772;2023-03-23T03:17:53;1.80;;;1.70;;
1837;SDS011;918;50.796;6.772;2023-03-23T03:20:24;2.17;;;1.80;;
1837;SDS011;918;50.796;6.772;2023-03-23T03:22:51;2.20;;;1.70;;
1837;SDS011;918;50.796;6.772;2023-03-23T03:25:17;1.80;;;1.70;;
1837;SDS011;918;50.796;6.772;2023-03-23T03:27:45;1.60;;;1.50;;
1837;SDS011;918;50.796;6.772;2023-03-23T03:30:14;1.73;;;1.63;;
1837;SDS011;918;50.796;6.772;2023-03-23T03:32:46;1.73;;;1.63;;
1837;SDS011;918;50.796;6.772;2023-03-23T03:35:13;1.53;;;1.43;;
1837;SDS011;918;50.796;6.772;2023-03-23T03:37:39;1.90;;;1.80;;
1837;SDS011;918;50.796;6.772;2023-03-23T03:40:08;1.80;;;1.70;;
1837;SDS011;918;50.796;6.772;2023-03-23T03:42:39;1.67;;;1.57;;
1837;SDS011;918;50.796;6.772;2023-03-23T03:45:06;3.00;;;1.63;;
1837;SDS011;918;50.796;6.772;2023-03-23T03:47:33;2.77;;;2.10;;
1837;SDS011;918;50.796;6.772;2023-03-23T03:49:58;2.47;;;1.97;;
1837;SDS011;918;50.796;6.772;2023-03-23T03:52:23;1.77;;;1.67;;
1837;SDS011;918;50.796;6.772;2023-03-23T03:54:49;1.57;;;1.47;;
1837;SDS011;918;50.796;6.772;2023-03-23T03:57:14;1.60;;;1.50;;
1837;SDS011;918;50.796;6.772;2023-03-23T03:59:39;1.70;;;1.60;;
1837;SDS011;918;50.796;6.772;2023-03-23T04:02:05;1.70;;;1.60;;
1837;SDS011;918;50.796;6.772;2023-03-23T04:04:31;2.03;;;1.93;;
1837;SDS011;918;50.796;6.772;2023-03-23T04:06:56;1.90;;;1.80;;
1837;SDS011;918;50.796;6.772;2023-03-23T04:09:22;2.37;;;2.17;;
1837;SDS011;918;50.796;6.772;2023-03-23T04:11:47;2.17;;;2.07;;
1837;SDS011;918;50.796;6.772;2023-03-23T04:14:12;2.30;;;2.10;;
1837;SDS011;918;50.796;6.772;2023-03-23T04:16:38;2.27;;;2.17;;
1837;SDS011;918;50.796;6.772;2023-03-23T04:19:03;2.57;;;2.37;;
1837;SDS011;918;50.796;6.772;2023-03-23T04:21:28;2.10;;;2.00;;
1837;SDS011;918;50.796;6.772;2023-03-23T04:23:57;2.30;;;2.13;;
1837;SDS011;918;50.796;6.772;2023-03-23T04:26:26;3.00;;;2.60;;
1837;SDS011;918;50.796;6.772;2023-03-23T04:28:53;3.10;;;2.30;;
1837;SDS011;918;50.796;6.772;2023-03-23T04:31:20;2.77;;;2.60;;
1837;SDS011;918;50.796;6.772;2023-03-23T04:33:45;2.43;;;2.33;;
1837;SDS011;918;50.796;6.772;2023-03-23T04:36:11;2.77;;;2.57;;
1837;SDS011;918;50.796;6.772;2023-03-23T04:38:40;2.73;;;2.53;;
1837;SDS011;918;50.796;6.772;2023-03-23T04:41:06;2.70;;;2.50;;
1837;SDS011;918;50.796;6.772;2023-03-23T04:43:31;2.87;;;2.67;;
1837;SDS011;918;50.796;6.772;2023-03-23T04:45:58;2.50;;;2.30;;
1837;SDS011;918;50.796;6.772;2023-03-23T04:48:26;2.77;;;2.40;;
1837;SDS011;918;50.796;6.772;2023-03-23T04:50:53;2.77;;;2.57;;
1837;SDS011;918;50.796;6.772;2023-03-23T04:53:19;2.67;;;2.47;;
1837;SDS011;918;50.796;6.772;2023-03-23T04:55:44;2.77;;;2.57;;
1837;SDS011;918;50.796;6.772;2023-03-23T04:58:10;2.33;;;2.23;;
1837;SDS011;918;50.796;6.772;2023-03-23T05:00:37;2.90;;;2.30;;
1837;SDS011;918;50.796;6.772;2023-03-23T05:03:02;3.27;;;2.97;;
1837;SDS011;918;50.796;6.772;2023-03-23T05:05:28;2.43;;;2.30;;
1837;SDS011;918;50.796;6.772;2023-03-23T05:07:56;3.07;;;2.87;;
1837;SDS011;918;50.796;6.772;2023-03-23T05:10:22;3.20;;;3.00;;
1837;SDS011;918;50.796;6.772;2023-03-23T05:12:48;2.60;;;2.40;;
1837;SDS011;918;50.796;6.772;2023-03-23T05:15:14;2.80;;;2.60;;
1837;SDS011;918;50.796;6.772;2023-03-23T05:17:40;3.80;;;2.73;;
1837;SDS011;918;50.796;6.772;2023-03-23T05:20:09;3.00;;;2.80;;
1837;SDS011;918;50.796;6.772;2023-03-23T05:22:37;2.90;;;2.53;;
1837;SDS011;918;50.796;6.772;2023-03-23T05:25:03;2.83;;;2.63;;
1837;SDS011;918;50.796;6.772;2023-03-23T05:27:29;2.93;;;2.73;;
1837;SDS011;918;50.796;6.772;2023-03-23T05:29:55;3.07;;;2.87;;
1837;SDS011;918;50.796;6.772;2023-03-23T05:32:25;3.23;;;2.87;;
1837;SDS011;918;50.796;6.772;2023-03-23T05:34:57;3.70;;;2.90;;
1837;SDS011;918;50.796;6.772;2023-03-23T05:37:24;3.27;;;3.07;;
1837;SDS011;918;50.796;6.772;2023-03-23T05:39:51;2.77;;;2.57;;
1837;SDS011;918;50.796;6.772;2023-03-23T05:42:18;3.60;;;2.53;;
1837;SDS011;918;50.796;6.772;2023-03-23T05:44:45;2.80;;;2.60;;
1837;SDS011;918;50.796;6.772;2023-03-23T05:47:10;3.10;;;2.80;;
1837;SDS011;918;50.796;6.772;2023-03-23T05:49:36;3.13;;;2.80;;
1837;SDS011;918;50.796;6.772;2023-03-23T05:52:03;3.80;;;3.50;;
1837;SDS011;918;50.796;6.772;2023-03-23T05:54:28;3.50;;;3.20;;
1837;SDS011;918;50.796;6.772;2023-03-23T05:56:53;7.43;;;6.33;;
1837;SDS011;918;50.796;6.772;2023-03-23T05:59:19;3.73;;;3.43;;
1837;SDS011;918;50.796;6.772;2023-03-23T06:01:44;2.80;;;2.60;;
1837;SDS011;918;50.796;6.772;2023-03-23T06:04:09;8.13;;;7.20;;
1837;SDS011;918;50.796;6.772;2023-03-23T06:06:37;5.83;;;5.17;;
1837;SDS011;918;50.796;6.772;2023-03-23T06:09:02;4.83;;;4.47;;
1837;SDS011;918;50.796;6.772;2023-03-23T06:11:28;5.63;;;2.80;;
1837;SDS011;918;50.796;6.772;2023-03-23T06:13:53;8.83;;;3.80;;
1837;SDS011;918;50.796;6.772;2023-03-23T06:16:19;4.30;;;3.90;;
1837;SDS011;918;50.796;6.772;2023-03-23T06:18:45;2.80;;;2.43;;
1837;SDS011;918;50.796;6.772;2023-03-23T06:21:11;7.60;;;5.50;;
1837;SDS011;918;50.796;6.772;2023-03-23T06:23:37;4.53;;;4.13;;
1837;SDS011;918;50.796;6.772;2023-03-23T06:26:04;3.23;;;3.03;;
1837;SDS011;918;50.796;6.772;2023-03-23T06:28:32;4.17;;;2.80;;
1837;SDS011;918;50.796;6.772;2023-03-23T06:31:02;2.10;;;2.00;;
1837;SDS011;918;50.796;6.772;2023-03-23T06:33:31;5.17;;;4.50;;
1837;SDS011;918;50.796;6.772;2023-03-23T06:35:56;3.93;;;2.40;;
1837;SDS011;918;50.796;6.772;2023-03-23T06:38:22;2.80;;;2.60;;
1837;SDS011;918;50.796;6.772;2023-03-23T06:40:47;2.70;;;2.00;;
1837;SDS011;918;50.796;6.772;2023-03-23T06:43:13;7.13;;;3.80;;
1837;SDS011;918;50.796;6.772;2023-03-23T06:45:38;4.10;;;3.37;;
1837;SDS011;918;50.796;6.772;2023-03-23T06:48:04;5.97;;;3.67;;
1837;SDS011;918;50.796;6.772;2023-03-23T06:50:30;2.70;;;2.50;;
1837;SDS011;918;50.796;6.772;2023-03-23T06:52:55;8.63;;;2.90;;
1837;SDS011;918;50.796;6.772;2023-03-23T06:55:21;2.03;;;1.93;;
1837;SDS011;918;50.796;6.772;2023-03-23T06:57:47;2.57;;;2.07;;
1837;SDS011;918;50.796;6.772;2023-03-23T07:00:12;2.77;;;2.57;;
1837;SDS011;918;50.796;6.772;2023-03-23T07:02:38;3.17;;;1.73;;
1837;SDS011;918;50.796;6.772;2023-03-23T07:05:05;4.43;;;2.47;;
1837;SDS011;918;50.796;6.772;2023-03-23T07:07:32;1.90;;;1.70;;
1837;SDS011;918;50.796;6.772;2023-03-23T07:09:57;2.83;;;2.17;;
1837;SDS011;918;50.796;6.772;2023-03-23T07:12:23;2.07;;;1.90;;
1837;SDS011;918;50.796;6.772;2023-03-23T07:14:48;2.13;;;1.63;;
1837;SDS011;918;50.796;6.772;2023-03-23T07:17:13;2.17;;;1.80;;
1837;SDS011;918;50.796;6.772;2023-03-23T07:19:39;1.90;;;1.80;;
1837;SDS011;918;50.796;6.772;2023-03-23T07:22:05;1.73;;;1.53;;
1837;SDS011;918;50.796;6.772;2023-03-23T07:24:31;2.77;;;1.70;;
1837;SDS011;918;50.796;6.772;2023-03-23T07:26:57;1.93;;;1.60;;
1837;SDS011;918;50.796;6.772;2023-03-23T07:29:22;2.50;;;2.10;;
1837;SDS011;918;50.796;6.772;2023-03-23T07:31:48;1.70;;;1.60;;
1837;SDS011;918;50.796;6.772;2023-03-23T07:34:13;3.30;;;2.00;;
1837;SDS011;918;50.796;6.772;2023-03-23T07:36:38;2.10;;;1.90;;
1837;SDS011;918;50.796;6.772;2023-03-23T07:39:04;2.10;;;1.90;;
1837;SDS011;918;50.796;6.772;2023-03-23T07:41:30;3.07;;;2.00;;
1837;SDS011;918;50.796;6.772;2023-03-23T07:43:56;3.57;;;2.03;;
1837;SDS011;918;50.796;6.772;2023-03-23T07:46:22;2.07;;;1.87;;
1837;SDS011;918;50.796;6.772;2023-03-23T07:48:47;3.40;;;1.80;;
1837;SDS011;918;50.796;6.772;2023-03-23T07:51:12;1.67;;;1.53;;
1837;SDS011;918;50.796;6.772;2023-03-23T07:53:38;2.40;;;1.77;;
1837;SDS011;918;50.796;6.772;2023-03-23T07:56:03;2.60;;;1.77;;
1837;SDS011;918;50.796;6.772;2023-03-23T07:58:29;2.70;;;1.70;;
1837;SDS011;918;50.796;6.772;2023-03-23T08:00:54;2.00;;;1.70;;
1837;SDS011;918;50.796;6.772;2023-03-23T08:03:22;24.73;;;2.97;;
1837;SDS011;918;50.796;6.772;2023-03-23T08:05:47;1.80;;;1.70;;
1837;SDS011;918;50.796;6.772;2023-03-23T08:08:13;1.70;;;1.60;;
1837;SDS011;918;50.796;6.772;2023-03-23T08:10:39;2.80;;;1.80;;
1837;SDS011;918;50.796;6.772;2023-03-23T08:13:04;3.63;;;1.80;;
1837;SDS011;918;50.796;6.772;2023-03-23T08:15:31;2.13;;;1.60;;
1837;SDS011;918;50.796;6.772;2023-03-23T08:17:57;3.07;;;2.10;;
1837;SDS011;918;50.796;6.772;2023-03-23T08:20:23;2.70;;;1.90;;
1837;SDS011;918;50.796;6.772;2023-03-23T08:22:54;2.90;;;2.27;;
1837;SDS011;918;50.796;6.772;2023-03-23T08:25:21;6.37;;;2.07;;
1837;SDS011;918;50.796;6.772;2023-03-23T08:27:46;2.80;;;2.00;;
1837;SDS011;918;50.796;6.772;2023-03-23T08:30:13;2.43;;;1.60;;
1837;SDS011;918;50.796;6.772;2023-03-23T08:32:40;4.47;;;1.90;;
1837;SDS011;918;50.796;6.772;2023-03-23T08:35:06;1.70;;;1.60;;
1837;SDS011;918;50.796;6.772;2023-03-23T08:37:33;2.13;;;1.33;;
1837;SDS011;918;50.796;6.772;2023-03-23T08:39:59;2.70;;;1.80;;
1837;SDS011;918;50.796;6.772;2023-03-23T08:42:24;2.00;;;1.53;;
1837;SDS011;918;50.796;6.772;2023-03-23T08:44:51;2.83;;;1.70;;
1837;SDS011;918;50.796;6.772;2023-03-23T08:47:16;3.13;;;1.50;;
1837;SDS011;918;50.796;6.772;2023-03-23T08:49:42;4.27;;;2.60;;
1837;SDS011;918;50.796;6.772;2023-03-23T08:52:08;2.13;;;1.80;;
1837;SDS011;918;50.796;6.772;2023-03-23T08:54:34;2.00;;;1.77;;
1837;SDS011;918;50.796;6.772;2023-03-23T08:56:59;3.20;;;2.00;;
1837;SDS011;918;50.796;6.772;2023-03-23T08:59:25;2.33;;;2.07;;
1837;SDS011;918;50.796;6.772;2023-03-23T09:01:51;4.40;;;2.37;;
1837;SDS011;918;50.796;6.772;2023-03-23T09:04:17;3.53;;;2.57;;
1837;SDS011;918;50.796;6.772;2023-03-23T09:06:42;4.00;;;1.70;;
1837;SDS011;918;50.796;6.772;2023-03-23T09:09:07;1.73;;;1.43;;
1837;SDS011;918;50.796;6.772;2023-03-23T09:11:34;3.30;;;2.00;;
1837;SDS011;918;50.796;6.772;2023-03-23T09:13:59;1.47;;;1.33;;
1837;SDS011;918;50.796;6.772;2023-03-23T09:16:26;4.37;;;1.63;;
1837;SDS011;918;50.796;6.772;2023-03-23T09:18:51;1.97;;;1.87;;
1837;SDS011;918;50.796;6.772;2023-03-23T09:21:16;3.87;;;1.67;;
1837;SDS011;918;50.796;6.772;2023-03-23T09:23:42;3.97;;;1.53;;
1837;SDS011;918;50.796;6.772;2023-03-23T09:26:09;3.33;;;1.90;;
1837;SDS011;918;50.796;6.772;2023-03-23T09:28:34;2.80;;;1.47;;
1837;SDS011;918;50.796;6.772;2023-03-23T09:30:59;2.90;;;1.80;;
1837;SDS011;918;50.796;6.772;2023-03-23T09:33:25;3.33;;;1.47;;
1837;SDS011;918;50.796;6.772;2023-03-23T09:35:50;2.50;;;1.60;;
1837;SDS011;918;50.796;6.772;2023-03-23T09:38:16;3.60;;;1.67;;
1837;SDS011;918;50.796;6.772;2023-03-23T09:43:20;2.00;;;1.30;;
1837;SDS011;918;50.796;6.772;2023-03-23T09:48:26;2.87;;;1.60;;
1837;SDS011;918;50.796;6.772;2023-03-23T09:51:32;1.90;;;1.20;;
1837;SDS011;918;50.796;6.772;2023-03-23T09:56:55;3.07;;;1.87;;
1837;SDS011;918;50.796;6.772;2023-03-23T09:59:25;2.10;;;1.20;;
1837;SDS011;918;50.796;6.772;2023-03-23T10:02:30;1.37;;;1.27;;
1837;SDS011;918;50.796;6.772;2023-03-23T10:05:03;1.63;;;1.27;;
1837;SDS011;918;50.796;6.772;2023-03-23T10:07:51;1.80;;;1.40;;
1837;SDS011;918;50.796;6.772;2023-03-23T10:10:16;1.60;;;1.20;;
1837;SDS011;918;50.796;6.772;2023-03-23T10:12:45;1.70;;;1.30;;
1837;SDS011;918;50.796;6.772;2023-03-23T10:15:18;1.73;;;1.20;;
1837;SDS011;918;50.796;6.772;2023-03-23T10:17:49;1.33;;;0.90;;
1837;SDS011;918;50.796;6.772;2023-03-23T10:23:10;2.47;;;1.23;;
1837;SDS011;918;50.796;6.772;2023-03-23T10:25:52;1.30;;;1.20;;
1837;SDS011;918;50.796;6.772;2023-03-23T10:28:21;1.43;;;1.00;;
1837;SDS011;918;50.796;6.772;2023-03-23T10:30:57;1.23;;;0.80;;
1837;SDS011;918;50.796;6.772;2023-03-23T10:33:29;1.30;;;1.10;;
1837;SDS011;918;50.796;6.772;2023-03-23T10:36:08;3.37;;;1.07;;
1837;SDS011;918;50.796;6.772;2023-03-23T10:38:39;1.47;;;1.20;;
1837;SDS011;918;50.796;6.772;2023-03-23T10:41:17;1.37;;;1.10;;
1837;SDS011;918;50.796;6.772;2023-03-23T10:43:44;1.53;;;1.00;;
1837;SDS011;918;50.796;6.772;2023-03-23T10:49:25;1.47;;;1.17;;
1837;SDS011;918;50.796;6.772;2023-03-23T10:54:47;2.90;;;1.33;;
1837;SDS011;918;50.796;6.772;2023-03-23T10:59:49;1.53;;;1.00;;
1837;SDS011;918;50.796;6.772;2023-03-23T11:02:16;2.50;;;1.07;;
1837;SDS011;918;50.796;6.772;2023-03-23T11:04:46;2.13;;;1.47;;
1837;SDS011;918;50.796;6.772;2023-03-23T11:07:20;2.50;;;1.10;;
1837;SDS011;918;50.796;6.772;2023-03-23T11:09:53;1.93;;;1.00;;
1837;SDS011;918;50.796;6.772;2023-03-23T11:12:20;2.20;;;1.20;;
1837;SDS011;918;50.796;6.772;2023-03-23T11:14:47;3.63;;;1.33;;
1837;SDS011;918;50.796;6.772;2023-03-23T11:17:24;0.90;;;0.90;;
1837;SDS011;918;50.796;6.772;2023-03-23T11:19:52;2.43;;;0.97;;
1837;SDS011;918;50.796;6.772;2023-03-23T11:22:21;0.80;;;0.80;;
1837;SDS011;918;50.796;6.772;2023-03-23T11:24:55;1.57;;;0.83;;
1837;SDS011;918;50.796;6.772;2023-03-23T11:27:24;1.33;;;0.70;;
1837;SDS011;918;50.796;6.772;2023-03-23T11:29:54;0.70;;;0.70;;
1837;SDS011;918;50.796;6.772;2023-03-23T11:32:33;4.30;;;1.07;;
1837;SDS011;918;50.796;6.772;2023-03-23T11:34:59;1.30;;;0.70;;
1837;SDS011;918;50.796;6.772;2023-03-23T11:39:59;3.70;;;0.80;;
1837;SDS011;918;50.796;6.772;2023-03-23T11:42:44;1.90;;;0.80;;
1837;SDS011;918;50.796;6.772;2023-03-23T11:45:22;1.50;;;0.80;;
1837;SDS011;918;50.796;6.772;2023-03-23T11:48:00;0.70;;;0.60;;
1837;SDS011;918;50.796;6.772;2023-03-23T11:50:47;2.30;;;0.90;;
1837;SDS011;918;50.796;6.772;2023-03-23T11:53:34;0.67;;;0.67;;
1837;SDS011;918;50.796;6.772;2023-03-23T11:56:13;1.70;;;1.57;;
1837;SDS011;918;50.796;6.772;2023-03-23T11:58:55;1.73;;;0.93;;
1837;SDS011;918;50.796;6.772;2023-03-23T12:04:16;0.80;;;0.80;;
1837;SDS011;918;50.796;6.772;2023-03-23T12:07:00;1.10;;;0.90;;
1837;SDS011;918;50.796;6.772;2023-03-23T12:09:37;1.57;;;1.47;;
1837;SDS011;918;50.796;6.772;2023-03-23T12:15:30;4.43;;;1.77;;
1837;SDS011;918;50.796;6.772;2023-03-23T12:23:53;2.27;;;1.30;;
1837;SDS011;918;50.796;6.772;2023-03-23T12:26:30;2.20;;;1.10;;
1837;SDS011;918;50.796;6.772;2023-03-23T12:40:07;2.10;;;1.10;;
1837;SDS011;918;50.796;6.772;2023-03-23T12:48:08;2.00;;;1.30;;
1837;SDS011;918;50.796;6.772;2023-03-23T12:53:22;3.00;;;1.60;;
1837;SDS011;918;50.796;6.772;2023-03-23T12:56:05;2.73;;;1.20;;
1837;SDS011;918;50.796;6.772;2023-03-23T12:58:34;1.57;;;1.00;;
1837;SDS011;918;50.796;6.772;2023-03-23T13:01:04;1.80;;;1.47;;
1837;SDS011;918;50.796;6.772;2023-03-23T13:11:48;2.27;;;1.30;;
1837;SDS011;918;50.796;6.772;2023-03-23T13:14:21;4.00;;;1.73;;
1837;SDS011;918;50.796;6.772;2023-03-23T13:17:16;5.03;;;1.50;;
1837;SDS011;918;50.796;6.772;2023-03-23T13:19:59;2.00;;;1.70;;
1837;SDS011;918;50.796;6.772;2023-03-23T13:25:50;2.73;;;1.90;;
1837;SDS011;918;50.796;6.772;2023-03-23T13:28:16;4.27;;;1.90;;
1837;SDS011;918;50.796;6.772;2023-03-23T13:33:46;2.30;;;1.40;;
1837;SDS011;918;50.796;6.772;2023-03-23T13:36:25;4.03;;;1.47;;
1837;SDS011;918;50.796;6.772;2023-03-23T13:38:52;4.43;;;1.80;;
1837;SDS011;918;50.796;6.772;2023-03-23T13:41:17;1.60;;;1.50;;
1837;SDS011;918;50.796;6.772;2023-03-23T13:43:46;2.17;;;2.00;;
1837;SDS011;918;50.796;6.772;2023-03-23T13:48:47;2.53;;;1.70;;
1837;SDS011;918;50.796;6.772;2023-03-23T13:54:12;2.60;;;1.60;;
1837;SDS011;918;50.796;6.772;2023-03-23T13:56:42;2.00;;;1.57;;
1837;SDS011;918;50.796;6.772;2023-03-23T13:59:28;3.63;;;1.50;;
1837;SDS011;918;50.796;6.772;2023-03-23T14:02:26;3.00;;;2.07;;
1837;SDS011;918;50.796;6.772;2023-03-23T14:05:08;4.43;;;1.70;;
1837;SDS011;918;50.796;6.772;2023-03-23T14:07:52;4.30;;;1.60;;
1837;SDS011;918;50.796;6.772;2023-03-23T14:10:19;1.57;;;1.47;;
1837;SDS011;918;50.796;6.772;2023-03-23T14:12:44;3.80;;;1.67;;
1837;SDS011;918;50.796;6.772;2023-03-23T14:15:11;3.93;;;1.60;;
1837;SDS011;918;50.796;6.772;2023-03-23T14:17:40;2.70;;;1.80;;
1837;SDS011;918;50.796;6.772;2023-03-23T14:20:09;2.60;;;2.40;;
1837;SDS011;918;50.796;6.772;2023-03-23T14:22:46;2.57;;;1.67;;
1837;SDS011;918;50.796;6.772;2023-03-23T14:25:12;2.20;;;1.60;;
1837;SDS011;918;50.796;6.772;2023-03-23T14:27:40;2.70;;;1.80;;
1837;SDS011;918;50.796;6.772;2023-03-23T14:30:07;1.77;;;1.53;;
1837;SDS011;918;50.796;6.772;2023-03-23T14:32:37;3.07;;;1.73;;
1837;SDS011;918;50.796;6.772;2023-03-23T14:35:07;3.23;;;1.70;;
1837;SDS011;918;50.796;6.772;2023-03-23T14:37:38;3.93;;;1.43;;
1837;SDS011;918;50.796;6.772;2023-03-23T14:40:04;4.23;;;2.43;;
1837;SDS011;918;50.796;6.772;2023-03-23T14:42:33;2.43;;;1.40;;
1837;SDS011;918;50.796;6.772;2023-03-23T14:45:00;3.23;;;1.40;;
1837;SDS011;918;50.796;6.772;2023-03-23T14:47:29;1.87;;;1.70;;
1837;SDS011;918;50.796;6.772;2023-03-23T14:49:58;4.97;;;2.43;;
1837;SDS011;918;50.796;6.772;2023-03-23T14:52:27;2.20;;;1.63;;
1837;SDS011;918;50.796;6.772;2023-03-23T14:54:54;3.50;;;1.60;;
1837;SDS011;918;50.796;6.772;2023-03-23T14:57:29;3.33;;;2.23;;
1837;SDS011;918;50.796;6.772;2023-03-23T14:59:55;1.93;;;1.70;;
1837;SDS011;918;50.796;6.772;2023-03-23T15:02:23;4.13;;;1.80;;
1837;SDS011;918;50.796;6.772;2023-03-23T15:05:06;3.33;;;2.20;;
1837;SDS011;918;50.796;6.772;2023-03-23T15:07:37;6.20;;;2.43;;
1837;SDS011;918;50.796;6.772;2023-03-23T15:10:07;3.50;;;2.53;;
1837;SDS011;918;50.796;6.772;2023-03-23T15:12:33;4.37;;;2.47;;
1837;SDS011;918;50.796;6.772;2023-03-23T15:15:00;3.30;;;3.00;;
1837;SDS011;918;50.796;6.772;2023-03-23T15:17:29;3.33;;;2.63;;
1837;SDS011;918;50.796;6.772;2023-03-23T15:19:56;1.50;;;1.27;;
1837;SDS011;918;50.796;6.772;2023-03-23T15:22:24;3.37;;;2.03;;
1837;SDS011;918;50.796;6.772;2023-03-23T15:24:51;2.20;;;1.40;;
1837;SDS011;918;50.796;6.772;2023-03-23T15:27:27;3.43;;;2.27;;
1837;SDS011;918;50.796;6.772;2023-03-23T15:29:57;2.17;;;1.67;;
1837;SDS011;918;50.796;6.772;2023-03-23T15:32:27;2.60;;;2.27;;
1837;SDS011;918;50.796;6.772;2023-03-23T15:34:54;3.07;;;1.90;;
1837;SDS011;918;50.796;6.772;2023-03-23T15:39:52;4.87;;;2.17;;
1837;SDS011;918;50.796;6.772;2023-03-23T15:42:21;4.70;;;2.23;;
1837;SDS011;918;50.796;6.772;2023-03-23T15:45:02;2.27;;;1.70;;
1837;SDS011;918;50.796;6.772;2023-03-23T15:47:38;3.73;;;2.00;;
1837;SDS011;918;50.796;6.772;2023-03-23T15:52:50;3.03;;;2.43;;
1837;SDS011;918;50.796;6.772;2023-03-23T15:55:20;2.87;;;2.13;;
1837;SDS011;918;50.796;6.772;2023-03-23T15:57:47;2.10;;;1.67;;
1837;SDS011;918;50.796;6.772;2023-03-23T16:00:14;3.07;;;2.00;;
1837;SDS011;918;50.796;6.772;2023-03-23T16:02:41;4.60;;;1.90;;
1837;SDS011;918;50.796;6.772;2023-03-23T16:05:08;2.93;;;1.90;;
1837;SDS011;918;50.796;6.772;2023-03-23T16:07:35;3.37;;;2.00;;
1837;SDS011;918;50.796;6.772;2023-03-23T16:10:02;2.40;;;2.20;;
1837;SDS011;918;50.796;6.772;2023-03-23T16:12:28;3.27;;;2.53;;
1837;SDS011;918;50.796;6.772;2023-03-23T16:14:53;6.30;;;2.00;;
1837;SDS011;918;50.796;6.772;2023-03-23T16:17:18;6.20;;;2.67;;
1837;SDS011;918;50.796;6.772;2023-03-23T16:19:44;3.87;;;2.77;;
1837;SDS011;918;50.796;6.772;2023-03-23T16:22:09;5.83;;;2.57;;
1837;SDS011;918;50.796;6.772;2023-03-23T16:24:35;2.00;;;1.90;;
1837;SDS011;918;50.796;6.772;2023-03-23T16:27:00;3.97;;;2.03;;
1837;SDS011;918;50.796;6.772;2023-03-23T16:29:25;3.50;;;2.20;;
1837;SDS011;918;50.796;6.772;2023-03-23T16:31:51;3.00;;;2.10;;
1837;SDS011;918;50.796;6.772;2023-03-23T16:34:17;3.40;;;2.53;;
1837;SDS011;918;50.796;6.772;2023-03-23T16:36:42;3.17;;;2.30;;
1837;SDS011;918;50.796;6.772;2023-03-23T16:39:08;2.80;;;2.07;;
1837;SDS011;918;50.796;6.772;2023-03-23T16:41:37;4.23;;;2.20;;
1837;SDS011;918;50.796;6.772;2023-03-23T16:44:02;4.90;;;3.07;;
1837;SDS011;918;50.796;6.772;2023-03-23T16:46:27;2.20;;;1.83;;
1837;SDS011;918;50.796;6.772;2023-03-23T16:48:53;3.50;;;2.40;;
1837;SDS011;918;50.796;6.772;2023-03-23T16:51:19;4.73;;;2.47;;
1837;SDS011;918;50.796;6.772;2023-03-23T16:53:44;4.03;;;2.33;;
1837;SDS011;918;50.796;6.772;2023-03-23T16:56:10;5.60;;;2.43;;
1837;SDS011;918;50.796;6.772;2023-03-23T16:58:35;2.40;;;2.00;;
1837;SDS011;918;50.796;6.772;2023-03-23T17:01:00;2.30;;;1.83;;
1837;SDS011;918;50.796;6.772;2023-03-23T17:03:26;5.63;;;2.63;;
1837;SDS011;918;50.796;6.772;2023-03-23T17:05:51;4.67;;;2.30;;
1837;SDS011;918;50.796;6.772;2023-03-23T17:08:17;2.73;;;1.83;;
1837;SDS011;918;50.796;6.772;2023-03-23T17:10:43;3.20;;;2.00;;
1837;SDS011;918;50.796;6.772;2023-03-23T17:13:09;2.43;;;2.00;;